createdAt,value
2022-10-17T00:01:10.714Z,100.00
2022-10-17T00:03:39.971Z,100.00
2022-10-17T00:06:13.539Z,100.00
2022-10-17T00:08:43.065Z,100.00
2022-10-17T00:11:19.599Z,100.00
2022-10-17T00:13:51.962Z,100.00
2022-10-17T00:16:25.298Z,100.00
2022-10-17T00:18:53.044Z,100.00
2022-10-17T00:21:22.829Z,100.00
2022-10-17T00:23:50.902Z,100.00
2022-10-17T00:26:19.175Z,100.00
2022-10-17T00:28:52.321Z,100.00
2022-10-17T00:31:22.937Z,100.00
2022-10-17T00:33:51.858Z,100.00
2022-10-17T00:36:25.398Z,100.00
2022-10-17T00:38:57.754Z,100.00
2022-10-17T00:41:29.885Z,100.00
2022-10-17T00:44:04.225Z,100.00
2022-10-17T00:46:37.377Z,100.00
2022-10-17T00:49:10.917Z,100.00
2022-10-17T00:51:44.219Z,100.00
2022-10-17T00:54:14.745Z,100.00
2022-10-17T00:56:43.912Z,100.00
2022-10-17T00:59:13.365Z,100.00
2022-10-17T01:01:43.445Z,100.00
2022-10-17T01:04:11.213Z,100.00
2022-10-17T01:06:40.404Z,100.00
2022-10-17T01:09:08.854Z,100.00
2022-10-17T01:11:50.822Z,100.00
2022-10-17T01:14:43.805Z,100.00
2022-10-17T01:17:26.940Z,100.00
2022-10-17T01:19:57.705Z,100.00
2022-10-17T01:22:39.077Z,100.00
2022-10-17T01:25:46.077Z,100.00
2022-10-17T01:28:16.856Z,100.00
2022-10-17T01:31:12.173Z,100.00
2022-10-17T01:33:56.013Z,100.00
2022-10-17T01:36:37.771Z,100.00
2022-10-17T01:39:15.976Z,100.00
2022-10-17T01:41:52.211Z,100.00
2022-10-17T01:44:46.011Z,100.00
2022-10-17T01:47:19.456Z,100.00
2022-10-17T01:49:51.498Z,100.00
2022-10-17T01:52:24.048Z,100.00
2022-10-17T01:55:23.829Z,100.00
2022-10-17T01:57:56.256Z,100.00
2022-10-17T02:00:27.557Z,100.00
2022-10-17T02:03:04.113Z,100.00
2022-10-17T02:05:37.589Z,100.00
2022-10-17T02:08:06.423Z,100.00
2022-10-17T02:10:59.365Z,100.00
2022-10-17T02:13:53.211Z,100.00
2022-10-17T02:16:59.927Z,100.00
2022-10-17T02:19:55.083Z,100.00
2022-10-17T02:22:35.436Z,100.00
2022-10-17T02:25:13.304Z,100.00
2022-10-17T02:28:08.017Z,100.00
2022-10-17T02:30:43.491Z,100.00
2022-10-17T02:33:21.114Z,100.00
2022-10-17T02:35:54.009Z,100.00
2022-10-17T02:38:24.801Z,100.00
2022-10-17T02:40:54.579Z,100.00
2022-10-17T02:43:23.810Z,100.00
2022-10-17T02:45:52.925Z,100.00
2022-10-17T02:48:31.429Z,100.00
2022-10-17T02:51:09.719Z,100.00
2022-10-17T02:53:53.400Z,100.00
2022-10-17T02:56:22.332Z,100.00
2022-10-17T02:59:00.007Z,100.00
2022-10-17T03:01:30.139Z,100.00
2022-10-17T03:04:06.350Z,100.00
2022-10-17T03:06:34.286Z,100.00
2022-10-17T03:09:02.270Z,100.00
2022-10-17T03:11:30.510Z,100.00
2022-10-17T03:13:58.281Z,100.00
2022-10-17T03:16:26.333Z,100.00
2022-10-17T03:18:54.263Z,100.00
2022-10-17T03:21:22.129Z,100.00
2022-10-17T03:23:50.010Z,100.00
2022-10-17T03:26:19.079Z,100.00
2022-10-17T03:28:48.559Z,100.00
2022-10-17T03:31:18.733Z,100.00
2022-10-17T03:33:47.151Z,100.00
2022-10-17T03:36:19.402Z,100.00
2022-10-17T03:38:48.628Z,100.00
2022-10-17T03:41:17.467Z,100.00
2022-10-17T03:43:45.551Z,100.00
2022-10-17T03:46:15.380Z,100.00
2022-10-17T03:48:44.168Z,100.00
2022-10-17T03:51:12.221Z,100.00
2022-10-17T03:53:48.876Z,100.00
2022-10-17T03:56:19.385Z,100.00
2022-10-17T03:58:52.903Z,100.00
2022-10-17T04:01:21.865Z,100.00
2022-10-17T04:03:52.231Z,100.00
2022-10-17T04:06:21.121Z,100.00
2022-10-17T04:08:49.851Z,100.00
2022-10-17T04:11:23.219Z,100.00
2022-10-17T04:13:56.440Z,100.00
2022-10-17T04:16:25.203Z,100.00
2022-10-17T04:19:01.782Z,100.00
2022-10-17T04:21:32.936Z,100.00
2022-10-17T04:24:05.241Z,100.00
2022-10-17T04:27:05.335Z,100.00
2022-10-17T04:29:34.892Z,100.00
2022-10-17T04:32:09.906Z,100.00
2022-10-17T04:34:49.734Z,100.00
2022-10-17T04:37:18.252Z,100.00
2022-10-17T04:39:46.805Z,100.00
2022-10-17T04:42:15.157Z,100.00
2022-10-17T04:44:43.612Z,100.00
2022-10-17T04:47:12.875Z,100.00
2022-10-17T04:52:15.082Z,100.00
2022-10-17T04:54:49.565Z,100.00
2022-10-17T04:57:20.149Z,100.00
2022-10-17T05:00:05.832Z,100.00
2022-10-17T05:02:54.628Z,100.00
2022-10-17T05:05:23.357Z,100.00
2022-10-17T05:07:52.663Z,100.00
2022-10-17T05:10:24.234Z,100.00
2022-10-17T05:12:53.359Z,100.00
2022-10-17T05:15:23.976Z,100.00
2022-10-17T05:17:57.000Z,100.00
2022-10-17T05:20:26.226Z,100.00
2022-10-17T05:22:54.607Z,100.00
2022-10-17T05:25:24.358Z,100.00
2022-10-17T05:27:52.171Z,100.00
2022-10-17T05:30:20.077Z,100.00
2022-10-17T05:32:52.812Z,100.00
2022-10-17T05:35:22.218Z,100.00
2022-10-17T05:37:50.864Z,100.00
2022-10-17T05:40:18.909Z,100.00
2022-10-17T05:42:48.485Z,100.00
2022-10-17T05:45:17.016Z,100.00
2022-10-17T05:47:45.050Z,100.00
2022-10-17T05:50:13.334Z,100.00
2022-10-17T05:53:00.852Z,100.00
2022-10-17T05:55:29.055Z,100.00
2022-10-17T05:58:00.234Z,100.00
2022-10-17T06:00:29.938Z,100.00
2022-10-17T06:02:58.397Z,100.00
2022-10-17T06:05:26.767Z,100.00
2022-10-17T06:07:58.176Z,100.00
2022-10-17T06:10:29.679Z,100.00
2022-10-17T06:12:57.634Z,100.00
2022-10-17T06:15:26.690Z,100.00
2022-10-17T06:18:04.481Z,100.00
2022-10-17T06:20:32.245Z,100.00
2022-10-17T06:23:00.305Z,100.00
2022-10-17T06:25:48.595Z,100.00
2022-10-17T06:28:16.441Z,100.00
2022-10-17T06:30:44.126Z,100.00
2022-10-17T06:33:12.803Z,100.00
2022-10-17T06:35:40.894Z,100.00
2022-10-17T06:38:08.738Z,100.00
2022-10-17T06:40:37.570Z,100.00
2022-10-17T06:43:05.303Z,100.00
2022-10-17T06:46:05.578Z,100.00
2022-10-17T06:48:42.989Z,100.00
2022-10-17T06:51:20.305Z,100.00
2022-10-17T06:53:51.293Z,100.00
2022-10-17T06:56:48.964Z,100.00
2022-10-17T06:59:16.879Z,100.00
2022-10-17T07:01:52.496Z,100.00
2022-10-17T07:04:20.411Z,100.00
2022-10-17T07:06:48.514Z,100.00
2022-10-17T07:09:19.733Z,100.00
2022-10-17T07:11:48.036Z,100.00
2022-10-17T07:14:19.095Z,100.00
2022-10-17T07:16:49.996Z,100.00
2022-10-17T07:19:23.646Z,100.00
2022-10-17T07:21:51.952Z,100.00
2022-10-17T07:24:20.298Z,100.00
2022-10-17T07:27:03.952Z,100.00
2022-10-17T07:29:32.055Z,100.00
2022-10-17T07:32:10.347Z,100.00
2022-10-17T07:34:38.120Z,100.00
2022-10-17T07:37:07.536Z,100.00
2022-10-17T07:39:35.758Z,100.00
2022-10-17T07:42:10.491Z,100.00
2022-10-17T07:44:38.289Z,100.00
2022-10-17T07:47:06.181Z,100.00
2022-10-17T07:49:42.482Z,100.00
2022-10-17T07:52:12.253Z,100.00
2022-10-17T07:54:40.978Z,100.00
2022-10-17T07:57:09.172Z,100.00
2022-10-17T07:59:38.290Z,100.00
2022-10-17T08:02:08.206Z,100.00
2022-10-17T08:04:36.606Z,100.00
2022-10-17T08:07:20.992Z,100.00
2022-10-17T08:09:52.324Z,100.00
2022-10-17T08:12:20.725Z,100.00
2022-10-17T08:14:48.715Z,100.00
2022-10-17T08:17:16.506Z,100.00
2022-10-17T08:19:44.320Z,100.00
2022-10-17T08:22:12.220Z,100.00
2022-10-17T08:24:39.947Z,100.00
2022-10-17T08:27:11.518Z,100.00
2022-10-17T08:29:40.585Z,100.00
2022-10-17T08:32:10.216Z,100.00
2022-10-17T08:34:38.437Z,100.00
2022-10-17T08:37:06.211Z,100.00
2022-10-17T08:39:34.219Z,100.00
2022-10-17T08:42:25.690Z,100.00
2022-10-17T08:44:59.602Z,100.00
2022-10-17T08:47:36.100Z,100.00
2022-10-17T08:50:07.142Z,100.00
2022-10-17T08:53:03.251Z,100.00
2022-10-17T08:55:39.995Z,100.00
2022-10-17T08:58:32.567Z,100.00
2022-10-17T09:01:25.669Z,100.00
2022-10-17T09:04:24.091Z,100.00
2022-10-17T09:07:13.849Z,100.00
2022-10-17T09:09:52.433Z,100.00
2022-10-17T09:12:22.855Z,100.00
2022-10-17T09:15:12.234Z,100.00
2022-10-17T09:17:49.780Z,100.00
2022-10-17T09:20:39.341Z,100.00
2022-10-17T09:23:21.039Z,100.00
2022-10-17T09:25:54.994Z,100.00
2022-10-17T09:28:30.688Z,100.00
2022-10-17T09:31:03.592Z,100.00
2022-10-17T09:33:53.742Z,100.00
2022-10-17T09:36:29.599Z,100.00
2022-10-17T09:39:01.240Z,100.00
2022-10-17T09:41:46.558Z,100.00
2022-10-17T09:44:35.910Z,100.00
2022-10-17T09:47:21.376Z,100.00
2022-10-17T09:49:50.361Z,99.90
2022-10-17T09:52:29.799Z,99.13
2022-10-17T09:55:05.472Z,99.09
2022-10-17T09:57:52.535Z,95.65
2022-10-17T10:00:28.387Z,93.35
2022-10-17T10:03:18.547Z,94.20
2022-10-17T10:06:00.103Z,92.34
2022-10-17T10:08:37.191Z,93.34
2022-10-17T10:11:13.463Z,91.06
2022-10-17T10:13:43.208Z,88.40
2022-10-17T10:16:31.321Z,85.41
2022-10-17T10:18:59.458Z,85.04
2022-10-17T10:21:28.481Z,83.19
2022-10-17T10:23:59.378Z,81.76
2022-10-17T10:26:39.251Z,81.00
2022-10-17T10:29:21.652Z,81.43
2022-10-17T10:31:51.013Z,80.11
2022-10-17T10:34:27.305Z,80.28
2022-10-17T10:37:02.850Z,78.29
2022-10-17T10:39:43.127Z,79.61
2022-10-17T10:42:32.037Z,79.35
2022-10-17T10:45:42.859Z,77.72
2022-10-17T10:48:27.679Z,75.66
2022-10-17T10:51:12.661Z,76.81
2022-10-17T10:53:49.746Z,77.78
2022-10-17T10:56:36.258Z,77.20
2022-10-17T10:59:26.558Z,74.93
2022-10-17T11:02:10.987Z,72.89
2022-10-17T11:04:48.505Z,72.90
2022-10-17T11:07:23.885Z,69.45
2022-10-17T11:10:08.292Z,69.02
2022-10-17T11:12:51.880Z,69.17
2022-10-17T11:15:47.950Z,70.64
2022-10-17T11:18:26.795Z,70.92
2022-10-17T11:21:16.661Z,69.85
2022-10-17T11:24:00.853Z,69.41
2022-10-17T11:26:39.123Z,69.52
2022-10-17T11:29:09.069Z,67.94
2022-10-17T11:31:41.737Z,65.71
2022-10-17T11:34:21.092Z,67.38
2022-10-17T11:36:55.154Z,65.73
2022-10-17T11:39:29.459Z,66.80
2022-10-17T11:41:58.917Z,66.12
2022-10-17T11:44:40.588Z,63.07
2022-10-17T11:47:35.565Z,60.82
2022-10-17T11:53:20.790Z,61.87
2022-10-17T11:55:52.884Z,61.53
2022-10-17T11:58:59.562Z,59.52
2022-10-17T12:01:40.447Z,59.34
2022-10-17T12:04:24.273Z,57.76
2022-10-17T12:07:19.243Z,59.46
2022-10-17T12:09:47.187Z,56.08
2022-10-17T12:12:33.530Z,57.75
2022-10-17T12:15:14.439Z,57.39
2022-10-17T12:17:45.513Z,57.92
2022-10-17T12:20:27.585Z,58.65
2022-10-17T12:22:59.033Z,55.94
2022-10-17T12:25:34.372Z,56.06
2022-10-17T12:28:14.184Z,56.03
2022-10-17T12:30:59.923Z,55.33
2022-10-17T12:33:51.884Z,54.81
2022-10-17T12:36:22.075Z,56.01
2022-10-17T12:39:16.239Z,55.99
2022-10-17T12:41:46.703Z,55.67
2022-10-17T12:44:21.553Z,56.73
2022-10-17T12:47:04.183Z,55.55
2022-10-17T12:49:39.895Z,55.76
2022-10-17T12:52:26.794Z,54.25
2022-10-17T12:55:14.039Z,55.18
2022-10-17T12:57:57.012Z,54.76
2022-10-17T13:00:37.465Z,54.67
2022-10-17T13:03:18.985Z,54.32
2022-10-17T13:05:53.670Z,53.46
2022-10-17T13:08:28.043Z,53.69
2022-10-17T13:10:57.884Z,53.51
2022-10-17T13:13:47.771Z,54.53
2022-10-17T13:16:37.302Z,55.58
2022-10-17T13:19:17.529Z,56.17
2022-10-17T13:21:59.748Z,56.90
2022-10-17T13:24:41.441Z,56.36
2022-10-17T13:27:30.557Z,57.28
2022-10-17T13:30:18.202Z,57.85
2022-10-17T13:32:46.938Z,57.94
2022-10-17T13:35:31.711Z,57.42
2022-10-17T13:38:13.844Z,56.81
2022-10-17T13:40:50.052Z,57.51
2022-10-17T13:43:24.633Z,57.73
2022-10-17T13:46:02.254Z,57.02
2022-10-17T13:48:38.944Z,56.46
2022-10-17T13:51:10.491Z,57.24
2022-10-17T13:53:44.067Z,57.85
2022-10-17T13:56:29.829Z,58.40
2022-10-17T13:59:20.393Z,57.42
2022-10-17T14:01:50.305Z,56.10
2022-10-17T14:05:15.637Z,56.83
2022-10-17T14:08:10.007Z,57.07
2022-10-17T14:10:39.173Z,57.46
2022-10-17T14:13:21.591Z,57.89
2022-10-17T14:15:51.283Z,58.04
2022-10-17T14:18:26.653Z,59.18
2022-10-17T14:21:33.964Z,60.42
2022-10-17T14:23:44.369Z,60.22
2022-10-17T14:26:17.428Z,60.54
2022-10-17T14:28:48.636Z,62.31
2022-10-17T14:31:22.266Z,63.08
2022-10-17T14:33:52.282Z,64.24
2022-10-17T14:36:30.651Z,64.91
2022-10-17T14:38:59.331Z,65.67
2022-10-17T14:41:47.686Z,66.89
2022-10-17T14:44:36.407Z,68.26
2022-10-17T14:47:38.105Z,68.40
2022-10-17T14:50:12.856Z,69.78
2022-10-17T14:52:41.176Z,71.40
2022-10-17T14:55:23.398Z,72.18
2022-10-17T14:57:51.690Z,72.67
2022-10-17T15:00:22.584Z,73.63
2022-10-17T15:02:52.364Z,73.61
2022-10-17T15:05:23.320Z,74.28
2022-10-17T15:07:51.839Z,75.26
2022-10-17T15:10:35.232Z,75.00
2022-10-17T15:15:52.863Z,76.64
2022-10-17T15:18:21.594Z,78.98
2022-10-17T15:20:55.460Z,80.79
2022-10-17T15:23:33.448Z,80.02
2022-10-17T15:26:01.926Z,80.73
2022-10-17T15:28:30.979Z,81.67
2022-10-17T15:30:59.260Z,82.79
2022-10-17T15:33:27.616Z,83.31
2022-10-17T15:35:55.730Z,84.65
2022-10-17T15:38:23.894Z,86.04
2022-10-17T15:40:52.376Z,85.92
2022-10-17T15:43:25.257Z,86.69
2022-10-17T15:45:54.002Z,88.31
2022-10-17T15:48:29.140Z,91.77
2022-10-17T15:50:58.434Z,94.47
2022-10-17T15:53:27.012Z,96.50
2022-10-17T15:55:56.116Z,98.14
2022-10-17T15:58:28.839Z,100.00
2022-10-17T16:00:57.873Z,100.00
2022-10-17T16:03:28.517Z,100.00
2022-10-17T16:05:57.565Z,100.00
2022-10-17T16:08:28.479Z,100.00
2022-10-17T16:10:58.280Z,100.00
2022-10-17T16:13:28.403Z,100.00
2022-10-17T16:15:57.537Z,100.00
2022-10-17T16:18:25.624Z,100.00
2022-10-17T16:20:53.694Z,100.00
2022-10-17T16:23:21.966Z,100.00
2022-10-17T16:25:50.417Z,100.00
2022-10-17T16:28:18.644Z,100.00
2022-10-17T16:30:48.641Z,100.00
2022-10-17T16:33:17.474Z,100.00
2022-10-17T16:35:47.849Z,100.00
2022-10-17T16:38:19.498Z,100.00
2022-10-17T16:40:49.395Z,100.00
2022-10-17T16:43:17.693Z,100.00
2022-10-17T16:45:45.982Z,100.00
2022-10-17T16:48:14.065Z,100.00
2022-10-17T16:50:42.700Z,100.00
2022-10-17T16:53:11.320Z,100.00
2022-10-17T16:55:40.183Z,100.00
2022-10-17T16:58:08.851Z,100.00
2022-10-17T17:00:40.129Z,100.00
2022-10-17T17:03:10.232Z,100.00
2022-10-17T17:05:38.996Z,100.00
2022-10-17T17:08:10.360Z,100.00
2022-10-17T17:10:45.944Z,100.00
2022-10-17T17:13:14.448Z,100.00
2022-10-17T17:18:16.768Z,100.00
2022-10-17T17:20:46.411Z,100.00
2022-10-17T17:23:19.386Z,100.00
2022-10-17T17:25:50.810Z,100.00
2022-10-17T17:28:19.331Z,100.00
2022-10-17T17:30:47.689Z,100.00
2022-10-17T17:33:16.440Z,100.00
2022-10-17T17:35:47.928Z,100.00
2022-10-17T17:38:17.869Z,100.00
2022-10-17T17:40:50.865Z,100.00
2022-10-17T17:43:20.203Z,100.00
2022-10-17T17:45:49.365Z,100.00
2022-10-17T17:48:18.761Z,100.00
2022-10-17T17:50:48.966Z,100.00
2022-10-17T17:53:20.169Z,100.00
2022-10-17T17:56:01.168Z,100.00
2022-10-17T17:58:32.063Z,100.00
2022-10-17T18:01:02.221Z,100.00
2022-10-17T18:03:32.627Z,100.00
2022-10-17T18:06:01.444Z,100.00
2022-10-17T18:08:31.388Z,100.00
2022-10-17T18:11:09.668Z,100.00
2022-10-17T18:13:43.707Z,100.00
2022-10-17T18:16:14.710Z,100.00
2022-10-17T18:18:46.121Z,100.00
2022-10-17T18:21:15.097Z,100.00
2022-10-17T18:23:49.164Z,100.00
2022-10-17T18:26:18.781Z,100.00
2022-10-17T18:28:48.121Z,100.00
2022-10-17T18:31:24.622Z,100.00
2022-10-17T18:33:58.321Z,100.00
2022-10-17T18:36:28.482Z,100.00
2022-10-17T18:38:57.373Z,100.00
2022-10-17T18:41:27.619Z,100.00
2022-10-17T18:43:56.902Z,100.00
2022-10-17T18:46:30.800Z,100.00
2022-10-17T18:49:00.127Z,100.00
2022-10-17T18:51:44.671Z,100.00
2022-10-17T18:54:20.941Z,100.00
2022-10-17T18:56:51.237Z,100.00
2022-10-17T18:59:20.742Z,100.00
2022-10-17T19:01:50.561Z,100.00
2022-10-17T19:04:19.365Z,100.00
2022-10-17T19:06:47.604Z,100.00
2022-10-17T19:09:16.897Z,100.00
2022-10-17T19:11:50.672Z,100.00
2022-10-17T19:14:22.254Z,100.00
2022-10-17T19:16:52.604Z,100.00
2022-10-17T19:19:25.759Z,100.00
2022-10-17T19:21:56.373Z,100.00
2022-10-17T19:24:27.807Z,100.00
2022-10-17T19:26:59.162Z,100.00
2022-10-17T19:29:36.409Z,100.00
2022-10-17T19:32:17.915Z,100.00
2022-10-17T19:34:49.992Z,100.00
2022-10-17T19:37:17.950Z,100.00
2022-10-17T19:39:49.426Z,100.00
2022-10-17T19:42:19.443Z,100.00
2022-10-17T19:44:47.974Z,100.00
2022-10-17T19:47:17.033Z,100.00
2022-10-17T19:49:49.840Z,100.00
2022-10-17T19:52:18.856Z,100.00
2022-10-17T19:54:47.436Z,100.00
2022-10-17T19:57:16.549Z,100.00
2022-10-17T19:59:48.011Z,100.00
2022-10-17T20:02:19.599Z,100.00
2022-10-17T20:04:54.680Z,100.00
2022-10-17T20:07:34.748Z,100.00
2022-10-17T20:10:03.041Z,100.00
2022-10-17T20:12:31.509Z,100.00
2022-10-17T20:15:00.318Z,100.00
2022-10-17T20:17:29.176Z,100.00
2022-10-17T20:19:57.332Z,100.00
2022-10-17T20:22:25.488Z,100.00
2022-10-17T20:24:53.276Z,100.00
2022-10-17T20:27:25.451Z,100.00
2022-10-17T20:29:55.836Z,100.00
2022-10-17T20:32:26.298Z,100.00
2022-10-17T20:34:54.871Z,100.00
2022-10-17T20:37:25.658Z,100.00
2022-10-17T20:40:16.488Z,100.00
2022-10-17T20:42:41.561Z,100.00
2022-10-17T20:45:09.931Z,100.00
2022-10-17T20:47:47.036Z,100.00
2022-10-17T20:50:16.264Z,100.00
2022-10-17T20:52:44.031Z,100.00
2022-10-17T20:55:12.005Z,100.00
2022-10-17T20:57:40.860Z,100.00
2022-10-17T21:00:09.325Z,100.00
2022-10-17T21:02:37.479Z,100.00
2022-10-17T21:05:08.439Z,100.00
2022-10-17T21:07:37.687Z,100.00
2022-10-17T21:10:34.256Z,100.00
2022-10-17T21:12:59.788Z,100.00
2022-10-17T21:15:28.112Z,100.00
2022-10-17T21:17:55.959Z,100.00
2022-10-17T21:20:24.150Z,100.00
2022-10-17T21:22:52.591Z,100.00
2022-10-17T21:25:20.728Z,100.00
2022-10-17T21:27:54.943Z,100.00
2022-10-17T21:30:25.574Z,100.00
2022-10-17T21:32:57.082Z,100.00
2022-10-17T21:35:25.135Z,100.00
2022-10-17T21:37:52.999Z,100.00
2022-10-17T21:40:20.925Z,100.00
2022-10-17T21:42:48.998Z,100.00
2022-10-17T21:45:25.247Z,100.00
2022-10-17T21:50:42.358Z,100.00
2022-10-17T21:53:10.286Z,100.00
2022-10-17T21:55:38.241Z,100.00
2022-10-17T21:58:05.988Z,100.00
2022-10-17T22:00:34.102Z,100.00
2022-10-17T22:03:01.940Z,100.00
2022-10-17T22:05:31.289Z,100.00
2022-10-17T22:07:59.107Z,100.00
2022-10-17T22:10:27.035Z,100.00
2022-10-17T22:12:54.832Z,100.00
2022-10-17T22:15:22.661Z,100.00
2022-10-17T22:17:50.458Z,100.00
2022-10-17T22:20:18.274Z,100.00
2022-10-17T22:22:48.723Z,100.00
2022-10-17T22:25:16.715Z,100.00
2022-10-17T22:27:45.157Z,100.00
2022-10-17T22:30:13.052Z,100.00
2022-10-17T22:32:40.925Z,100.00
2022-10-17T22:35:09.136Z,100.00
2022-10-17T22:37:36.895Z,100.00
2022-10-17T22:40:06.034Z,100.00
2022-10-17T22:42:34.750Z,100.00
2022-10-17T22:45:03.155Z,100.00
2022-10-17T22:47:31.553Z,100.00
2022-10-17T22:49:59.624Z,100.00
2022-10-17T22:52:27.540Z,100.00
2022-10-17T22:54:55.679Z,100.00
2022-10-17T22:57:23.542Z,100.00
2022-10-17T22:59:52.105Z,100.00
2022-10-17T23:02:22.427Z,100.00
2022-10-17T23:04:50.906Z,100.00
2022-10-17T23:07:18.739Z,100.00
2022-10-17T23:09:46.490Z,100.00
2022-10-17T23:12:14.328Z,100.00
2022-10-17T23:14:43.579Z,100.00
2022-10-17T23:17:12.221Z,100.00
2022-10-17T23:19:40.380Z,100.00
2022-10-17T23:22:09.405Z,100.00
2022-10-17T23:24:37.345Z,100.00
2022-10-17T23:27:05.253Z,100.00
2022-10-17T23:29:34.358Z,100.00
2022-10-17T23:32:02.278Z,100.00
2022-10-17T23:34:30.719Z,100.00
2022-10-17T23:36:58.593Z,100.00
2022-10-17T23:39:26.492Z,100.00
2022-10-17T23:41:54.246Z,100.00
2022-10-17T23:44:23.573Z,100.00
2022-10-17T23:46:52.149Z,100.00
2022-10-17T23:49:20.269Z,100.00
2022-10-17T23:51:49.959Z,100.00
2022-10-17T23:54:17.850Z,100.00
2022-10-17T23:56:45.784Z,100.00
2022-10-17T23:59:13.509Z,100.00
